Time;durP1;ratioP1;P1;durP2;ratioP2;P2;SDS_P1;SDS_P2;PMS_P1;PMS_P2;Temp;Humidity;BMP_temperature;BMP_pressure;BME280_temperature;BME280_humidity;BME280_pressure;Samples;Min_cycle;Max_cycle;Signal;HPM_P1;HPM_P2
2022/10/30 00:04:27;;;;;;;7.88;6.05;;;;;;;;;;10418270;28;20207;-69
2022/10/30 00:09:28;;;;;;;8.75;6.03;;;;;;;;;;10420951;28;20218;-69
2022/10/30 00:14:29;;;;;;;6.68;5.88;;;;;;;;;;10419184;28;20234;-69
2022/10/30 00:19:30;;;;;;;8.27;6.40;;;;;;;;;;10423241;28;20232;-69
2022/10/30 00:24:31;;;;;;;8.15;5.82;;;;;;;;;;10424981;28;20258;-69
2022/10/30 00:29:33;;;;;;;9.75;6.45;;;;;;;;;;10425799;28;20247;-69
2022/10/30 00:34:34;;;;;;;10.02;6.25;;;;;;;;;;10423651;28;20246;-69
2022/10/30 00:39:35;;;;;;;10.20;6.65;;;;;;;;;;10423806;28;20230;-69
2022/10/30 00:44:45;;;;;;;9.70;6.38;;;;;;;;;;10419119;28;20669;-69
2022/10/30 00:49:49;;;;;;;7.07;6.22;;;;;;;;;;10423808;28;20230;-69
2022/10/30 00:54:52;;;;;;;6.68;6.03;;;;;;;;;;10420695;28;20644;-69
2022/10/30 00:59:53;;;;;;;15.23;6.93;;;;;;;;;;10425007;28;20219;-69
2022/10/30 01:04:54;;;;;;;8.52;7.22;;;;;;;;;;10420315;28;20219;-69
2022/10/30 01:09:55;;;;;;;8.23;6.70;;;;;;;;;;10422509;28;20207;-69
2022/10/30 01:14:58;;;;;;;13.45;7.45;;;;;;;;;;10421672;28;20309;-69
2022/10/30 01:19:59;;;;;;;11.05;6.85;;;;;;;;;;10425542;28;20323;-69
2022/10/30 01:25:19;;;;;;;8.35;6.38;;;;;;;;;;10419905;28;20297;-69
2022/10/30 01:30:28;;;;;;;14.25;6.78;;;;;;;;;;10422497;28;20211;-68
2022/10/30 01:35:52;;;;;;;11.57;6.70;;;;;;;;;;10417313;28;20281;-67
2022/10/30 01:40:53;;;;;;;8.70;6.75;;;;;;;;;;10413225;28;20223;-69
2022/10/30 01:46:10;;;;;;;8.65;5.93;;;;;;;;;;10409312;28;20730;-68
2022/10/30 01:51:11;;;;;;;6.88;5.93;;;;;;;;;;10419018;28;20297;-68
2022/10/30 01:56:12;;;;;;;10.85;6.97;;;;;;;;;;10422759;28;20268;-68
2022/10/30 02:01:13;;;;;;;9.45;6.15;;;;;;;;;;10416657;28;20655;-67
2022/10/30 02:06:14;;;;;;;10.60;5.75;;;;;;;;;;10421795;28;20218;-69
2022/10/30 02:11:16;;;;;;;9.70;5.53;;;;;;;;;;10405567;28;20222;-69
2022/10/30 02:16:17;;;;;;;10.23;5.93;;;;;;;;;;10409258;28;20218;-69
2022/10/30 02:21:18;;;;;;;9.77;6.72;;;;;;;;;;10412820;28;20313;-69
2022/10/30 02:26:19;;;;;;;7.43;5.57;;;;;;;;;;10405110;28;20222;-69
2022/10/30 02:31:21;;;;;;;6.18;5.57;;;;;;;;;;10415788;28;20793;-69
2022/10/30 02:36:22;;;;;;;6.75;5.72;;;;;;;;;;10431057;28;20596;-69
2022/10/30 02:41:24;;;;;;;9.30;6.57;;;;;;;;;;10421253;28;20257;-69
2022/10/30 02:46:25;;;;;;;14.40;7.35;;;;;;;;;;10421336;28;20236;-69
2022/10/30 02:51:26;;;;;;;8.55;6.65;;;;;;;;;;10401561;28;20219;-69
2022/10/30 02:56:27;;;;;;;10.40;6.10;;;;;;;;;;10412514;28;20631;-69
2022/10/30 03:01:28;;;;;;;12.00;6.18;;;;;;;;;;10416393;28;20600;-69
2022/10/30 03:06:32;;;;;;;10.68;6.13;;;;;;;;;;10399754;28;20214;-69
2022/10/30 03:11:33;;;;;;;7.80;5.88;;;;;;;;;;10415977;28;20699;-69
2022/10/30 03:16:36;;;;;;;10.18;5.95;;;;;;;;;;10405461;28;20834;-69
2022/10/30 03:21:37;;;;;;;8.07;5.50;;;;;;;;;;10414508;28;20789;-69
2022/10/30 03:26:38;;;;;;;9.65;5.53;;;;;;;;;;10407569;28;20222;-70
2022/10/30 03:31:41;;;;;;;6.53;4.50;;;;;;;;;;10417195;28;20298;-70
2022/10/30 03:36:47;;;;;;;7.80;5.10;;;;;;;;;;10403996;28;20215;-69
2022/10/30 03:41:48;;;;;;;5.32;4.82;;;;;;;;;;10415989;28;20233;-69
2022/10/30 03:46:49;;;;;;;10.13;5.35;;;;;;;;;;10414336;28;20700;-69
2022/10/30 03:52:11;;;;;;;8.25;4.60;;;;;;;;;;10421009;28;20235;-69
2022/10/30 03:57:12;;;;;;;5.78;4.93;;;;;;;;;;10425638;28;20221;-69
2022/10/30 04:02:30;;;;;;;10.27;5.47;;;;;;;;;;10415587;28;20241;-69
2022/10/30 04:07:31;;;;;;;5.43;4.70;;;;;;;;;;10424727;28;20337;-69
2022/10/30 04:12:33;;;;;;;6.97;5.47;;;;;;;;;;10421368;28;20333;-69
2022/10/30 04:17:34;;;;;;;6.65;5.30;;;;;;;;;;10424255;28;20280;-69
2022/10/30 04:22:38;;;;;;;8.07;5.15;;;;;;;;;;10419160;28;20219;-69
2022/10/30 04:27:40;;;;;;;7.28;5.03;;;;;;;;;;10411305;28;20338;-69
2022/10/30 04:32:48;;;;;;;8.70;5.20;;;;;;;;;;10418215;28;20303;-69
2022/10/30 04:37:53;;;;;;;12.13;5.75;;;;;;;;;;10420048;28;20230;-69
2022/10/30 04:42:55;;;;;;;7.43;4.60;;;;;;;;;;10426900;28;20234;-69
2022/10/30 04:48:00;;;;;;;6.70;5.13;;;;;;;;;;10424211;28;20229;-69
2022/10/30 04:53:11;;;;;;;8.65;5.28;;;;;;;;;;10420801;28;20215;-69
2022/10/30 04:58:13;;;;;;;8.68;5.03;;;;;;;;;;10421729;28;20207;-69
2022/10/30 05:03:18;;;;;;;4.60;4.13;;;;;;;;;;10422185;28;20336;-69
2022/10/30 05:08:19;;;;;;;7.57;5.38;;;;;;;;;;10421354;28;20215;-69
2022/10/30 05:13:20;;;;;;;8.50;5.20;;;;;;;;;;10425730;28;20709;-69
2022/10/30 05:18:21;;;;;;;8.05;5.45;;;;;;;;;;10426175;28;20210;-69
2022/10/30 05:23:23;;;;;;;5.10;4.38;;;;;;;;;;10423192;28;20740;-69
2022/10/30 05:28:24;;;;;;;10.68;5.13;;;;;;;;;;10418115;28;20211;-69
2022/10/30 05:33:30;;;;;;;5.38;4.72;;;;;;;;;;10420751;28;20309;-69
2022/10/30 05:38:31;;;;;;;4.72;4.32;;;;;;;;;;10415785;28;20807;-69
2022/10/30 05:43:32;;;;;;;4.38;3.75;;;;;;;;;;10403640;28;20671;-69
2022/10/30 05:48:34;;;;;;;6.68;4.75;;;;;;;;;;10362276;28;20304;-69
2022/10/30 05:53:35;;;;;;;6.80;4.68;;;;;;;;;;10348839;28;20327;-69
2022/10/30 05:58:37;;;;;;;5.13;4.63;;;;;;;;;;10368761;28;20219;-69
2022/10/30 06:03:39;;;;;;;6.88;4.30;;;;;;;;;;10367664;28;20362;-69
2022/10/30 06:08:41;;;;;;;7.13;4.72;;;;;;;;;;10351297;28;20733;-68
2022/10/30 06:14:03;;;;;;;5.35;4.13;;;;;;;;;;10348713;28;20223;-69
2022/10/30 06:19:19;;;;;;;4.45;4.15;;;;;;;;;;10366707;28;20278;-69
2022/10/30 06:24:24;;;;;;;7.10;4.88;;;;;;;;;;10368219;28;20216;-68
2022/10/30 06:29:53;;;;;;;8.57;4.65;;;;;;;;;;10365064;28;20316;-69
2022/10/30 06:34:55;;;;;;;4.95;4.55;;;;;;;;;;10346655;28;20224;-68
2022/10/30 06:39:56;;;;;;;7.75;4.75;;;;;;;;;;10345780;28;20219;-69
2022/10/30 06:45:17;;;;;;;5.10;4.22;;;;;;;;;;10393026;28;20308;-69
2022/10/30 06:50:19;;;;;;;5.65;4.85;;;;;;;;;;10396005;28;20188;-69
2022/10/30 06:55:20;;;;;;;4.18;3.83;;;;;;;;;;10413903;28;20183;-69
2022/10/30 07:00:33;;;;;;;5.45;4.30;;;;;;;;;;10409516;28;20305;-69
2022/10/30 07:05:56;;;;;;;6.70;4.55;;;;;;;;;;10417401;28;20227;-69
2022/10/30 07:10:58;;;;;;;6.95;4.85;;;;;;;;;;10408884;28;20306;-69
2022/10/30 07:16:17;;;;;;;10.07;4.72;;;;;;;;;;10417624;28;20223;-69
2022/10/30 07:21:21;;;;;;;8.02;5.45;;;;;;;;;;10417167;28;20725;-70
2022/10/30 07:26:23;;;;;;;8.18;5.15;;;;;;;;;;10421248;28;20222;-70
2022/10/30 07:31:26;;;;;;;13.55;5.78;;;;;;;;;;10420424;28;20222;-69
2022/10/30 07:36:27;;;;;;;7.47;5.20;;;;;;;;;;10421797;28;20298;-69
2022/10/30 07:41:44;;;;;;;7.32;5.32;;;;;;;;;;10426283;28;20234;-70
2022/10/30 07:47:04;;;;;;;21.63;5.63;;;;;;;;;;10422018;28;20231;-70
2022/10/30 07:52:19;;;;;;;11.13;5.47;;;;;;;;;;10419446;28;20332;-70
2022/10/30 07:57:22;;;;;;;6.75;5.05;;;;;;;;;;10419932;28;20867;-70
2022/10/30 08:02:55;;;;;;;9.77;4.88;;;;;;;;;;10357520;28;20237;-70
2022/10/30 08:08:02;;;;;;;11.52;5.05;;;;;;;;;;10413711;28;20706;-71
2022/10/30 08:13:04;;;;;;;7.63;4.50;;;;;;;;;;10417095;28;20845;-71
2022/10/30 08:18:05;;;;;;;6.75;5.05;;;;;;;;;;10421795;28;20238;-71
2022/10/30 08:23:09;;;;;;;5.68;4.53;;;;;;;;;;10424155;28;20211;-70
2022/10/30 08:28:10;;;;;;;9.85;5.07;;;;;;;;;;10421596;28;20276;-71
2022/10/30 08:33:12;;;;;;;5.75;5.15;;;;;;;;;;10414110;28;20210;-70
2022/10/30 08:38:32;;;;;;;7.07;4.82;;;;;;;;;;10413287;28;20246;-73
2022/10/30 08:43:53;;;;;;;6.63;4.00;;;;;;;;;;10412783;28;20231;-73
2022/10/30 08:48:57;;;;;;;12.68;4.80;;;;;;;;;;10401494;28;20322;-73
2022/10/30 08:53:59;;;;;;;6.35;3.95;;;;;;;;;;10417379;28;20219;-73
2022/10/30 08:59:00;;;;;;;5.03;3.60;;;;;;;;;;10416791;28;20492;-74
2022/10/30 09:04:01;;;;;;;5.65;3.10;;;;;;;;;;10412198;28;20226;-75
2022/10/30 09:09:28;;;;;;;5.60;3.97;;;;;;;;;;10416020;28;20560;-74
2022/10/30 09:14:33;;;;;;;5.90;3.70;;;;;;;;;;10411740;28;20630;-73
2022/10/30 09:19:34;;;;;;;9.15;4.55;;;;;;;;;;10411093;28;20302;-73
2022/10/30 09:24:36;;;;;;;10.82;4.10;;;;;;;;;;10417104;28;20222;-73
2022/10/30 09:29:56;;;;;;;7.43;3.40;;;;;;;;;;10411662;28;20246;-71
2022/10/30 09:34:59;;;;;;;2.95;2.53;;;;;;;;;;10421307;28;20229;-70
2022/10/30 09:40:06;;;;;;;6.53;2.10;;;;;;;;;;10417583;28;20223;-67
2022/10/30 09:45:26;;;;;;;2.97;2.00;;;;;;;;;;10415902;28;20246;-70
2022/10/30 09:50:31;;;;;;;5.82;2.13;;;;;;;;;;10431394;28;20254;-69
2022/10/30 09:55:42;;;;;;;3.08;1.83;;;;;;;;;;10414942;28;20206;-71
2022/10/30 10:00:49;;;;;;;4.00;1.95;;;;;;;;;;10420431;28;20218;-69
2022/10/30 10:05:58;;;;;;;4.53;1.38;;;;;;;;;;10432865;28;20306;-70
2022/10/30 10:11:12;;;;;;;6.05;1.95;;;;;;;;;;10414248;28;20215;-70
2022/10/30 10:16:18;;;;;;;4.88;1.77;;;;;;;;;;10415042;28;20237;-69
2022/10/30 10:21:27;;;;;;;5.72;2.38;;;;;;;;;;10415027;28;20655;-70
2022/10/30 10:26:29;;;;;;;5.63;1.63;;;;;;;;;;10417155;28;20235;-70
2022/10/30 10:31:39;;;;;;;2.33;1.65;;;;;;;;;;10417142;28;20338;-70
2022/10/30 10:36:54;;;;;;;3.92;2.08;;;;;;;;;;10417518;28;20219;-70
2022/10/30 10:42:04;;;;;;;4.07;1.75;;;;;;;;;;10414120;28;20729;-70
2022/10/30 10:47:15;;;;;;;4.15;1.67;;;;;;;;;;10417511;28;20318;-71
2022/10/30 10:52:24;;;;;;;7.65;1.77;;;;;;;;;;10416568;28;20219;-72
2022/10/30 10:57:25;;;;;;;5.15;1.63;;;;;;;;;;10419483;28;21017;-74
2022/10/30 11:02:48;;;;;;;4.97;1.50;;;;;;;;;;10413170;28;20222;-74
2022/10/30 11:07:50;;;;;;;5.45;1.65;;;;;;;;;;10416180;28;20229;-77
2022/10/30 11:12:51;;;;;;;1.55;1.38;;;;;;;;;;10418045;28;20693;-77
2022/10/30 11:17:59;;;;;;;2.50;1.52;;;;;;;;;;10413876;28;20214;-76
2022/10/30 11:23:00;;;;;;;4.90;1.60;;;;;;;;;;10421128;28;20230;-77
2022/10/30 11:28:05;;;;;;;6.18;1.52;;;;;;;;;;10425236;28;20231;-77
2022/10/30 11:33:22;;;;;;;3.65;1.48;;;;;;;;;;10415209;28;20249;-75
2022/10/30 11:38:26;;;;;;;4.85;1.52;;;;;;;;;;10417006;28;20226;-76
2022/10/30 11:43:27;;;;;;;3.28;1.38;;;;;;;;;;10414332;28;20234;-76
2022/10/30 11:48:33;;;;;;;3.83;1.50;;;;;;;;;;10415960;28;20422;-76
2022/10/30 11:53:38;;;;;;;4.53;1.80;;;;;;;;;;10413716;28;21914;-76
2022/10/30 11:58:43;;;;;;;9.55;2.08;;;;;;;;;;10413176;28;20236;-76
2022/10/30 12:03:44;;;;;;;5.70;2.25;;;;;;;;;;10417845;28;20762;-76
2022/10/30 12:08:58;;;;;;;2.15;1.40;;;;;;;;;;10424734;28;20230;-76
2022/10/30 12:13:59;;;;;;;2.05;1.60;;;;;;;;;;10423682;28;20218;-77
2022/10/30 12:19:08;;;;;;;3.58;1.23;;;;;;;;;;10423855;28;20211;-76
2022/10/30 12:24:14;;;;;;;2.45;1.45;;;;;;;;;;10426409;28;21194;-76
2022/10/30 12:29:17;;;;;;;4.65;1.67;;;;;;;;;;10420010;28;20890;-76
2022/10/30 12:34:37;;;;;;;4.43;1.83;;;;;;;;;;10425866;28;20221;-75
2022/10/30 12:39:38;;;;;;;5.85;1.83;;;;;;;;;;10421931;28;20227;-76
2022/10/30 12:44:42;;;;;;;5.18;1.73;;;;;;;;;;10419149;28;20231;-76
2022/10/30 12:49:47;;;;;;;4.25;1.40;;;;;;;;;;10422094;28;20215;-75
2022/10/30 12:54:52;;;;;;;3.33;1.70;;;;;;;;;;10423037;28;20734;-76
2022/10/30 12:59:53;;;;;;;6.30;1.52;;;;;;;;;;10420625;28;20270;-76
2022/10/30 13:04:57;;;;;;;7.00;1.40;;;;;;;;;;10417989;28;20306;-76
2022/10/30 13:09:58;;;;;;;5.65;1.60;;;;;;;;;;10422168;28;20698;-76
2022/10/30 13:15:04;;;;;;;2.45;1.70;;;;;;;;;;10417737;28;20223;-75
2022/10/30 13:20:12;;;;;;;5.82;1.80;;;;;;;;;;10416952;28;20235;-75
2022/10/30 13:25:35;;;;;;;3.25;1.48;;;;;;;;;;10422096;28;20213;-75
2022/10/30 13:30:39;;;;;;;4.93;1.80;;;;;;;;;;10417836;28;20319;-75
2022/10/30 13:35:49;;;;;;;8.95;1.60;;;;;;;;;;10421612;28;20833;-75
2022/10/30 13:40:52;;;;;;;4.10;1.45;;;;;;;;;;10421211;28;20234;-75
2022/10/30 13:45:56;;;;;;;4.70;1.23;;;;;;;;;;10419047;28;20284;-75
2022/10/30 13:51:06;;;;;;;3.22;1.15;;;;;;;;;;10419589;28;20245;-75
2022/10/30 13:56:10;;;;;;;7.80;1.60;;;;;;;;;;10419373;28;20222;-76
2022/10/30 14:01:27;;;;;;;1.92;1.40;;;;;;;;;;10421304;28;20229;-74
2022/10/30 14:06:44;;;;;;;1.77;1.73;;;;;;;;;;10423731;28;20218;-74
2022/10/30 14:11:45;;;;;;;1.95;1.42;;;;;;;;;;10415400;28;20227;-73
2022/10/30 14:17:03;;;;;;;6.20;1.60;;;;;;;;;;10416731;28;20221;-73
2022/10/30 14:22:04;;;;;;;2.08;1.55;;;;;;;;;;10416373;28;21027;-73
2022/10/30 14:27:05;;;;;;;3.33;1.45;;;;;;;;;;10414771;28;20361;-74
2022/10/30 14:32:18;;;;;;;4.25;1.45;;;;;;;;;;10418409;28;20238;-70
2022/10/30 14:37:22;;;;;;;5.93;1.80;;;;;;;;;;10414046;28;20326;-70
2022/10/30 14:42:35;;;;;;;2.55;1.85;;;;;;;;;;10411501;28;20533;-70
2022/10/30 14:47:45;;;;;;;3.67;1.80;;;;;;;;;;10415257;28;20231;-69
2022/10/30 14:52:58;;;;;;;1.83;1.73;;;;;;;;;;10414747;28;20265;-69
2022/10/30 14:58:02;;;;;;;3.50;2.05;;;;;;;;;;10414944;28;20215;-73
2022/10/30 15:03:13;;;;;;;4.43;2.30;;;;;;;;;;10415251;28;20236;-71
2022/10/30 15:08:24;;;;;;;3.85;2.10;;;;;;;;;;10413411;28;20225;-72
2022/10/30 15:13:25;;;;;;;8.38;2.55;;;;;;;;;;10415824;28;20254;-71
2022/10/30 15:18:26;;;;;;;2.42;2.30;;;;;;;;;;10411344;28;21046;-71
2022/10/30 15:23:29;;;;;;;4.78;2.17;;;;;;;;;;10409411;28;20226;-73
2022/10/30 15:28:32;;;;;;;2.65;2.35;;;;;;;;;;10413299;28;20228;-73
2022/10/30 15:33:36;;;;;;;4.13;1.92;;;;;;;;;;10416226;28;20222;-72
2022/10/30 15:38:37;;;;;;;2.83;2.63;;;;;;;;;;10421251;28;20246;-71
2022/10/30 15:43:40;;;;;;;2.53;2.30;;;;;;;;;;10418158;28;20986;-71
2022/10/30 15:48:45;;;;;;;4.97;2.97;;;;;;;;;;10420613;28;20219;-75
2022/10/30 15:53:47;;;;;;;5.25;3.13;;;;;;;;;;10421611;28;20215;-74
2022/10/30 15:58:50;;;;;;;3.78;2.97;;;;;;;;;;10426011;28;20239;-74
2022/10/30 16:03:52;;;;;;;8.40;3.30;;;;;;;;;;10422094;28;20276;-70
2022/10/30 16:08:53;;;;;;;4.93;3.25;;;;;;;;;;10422807;28;20230;-72
2022/10/30 16:13:54;;;;;;;4.80;3.20;;;;;;;;;;10418450;28;20227;-74
2022/10/30 16:19:00;;;;;;;5.97;3.28;;;;;;;;;;10418811;28;20250;-72
2022/10/30 16:24:02;;;;;;;4.13;3.20;;;;;;;;;;10424008;28;20316;-71
2022/10/30 16:29:09;;;;;;;3.50;2.92;;;;;;;;;;10418297;28;20223;-70
2022/10/30 16:34:12;;;;;;;5.43;3.17;;;;;;;;;;10419589;28;20241;-74
2022/10/30 16:39:14;;;;;;;3.22;3.03;;;;;;;;;;10421767;28;20211;-78
2022/10/30 16:44:25;;;;;;;6.78;3.83;;;;;;;;;;10421383;28;20651;-72
2022/10/30 16:49:28;;;;;;;7.30;5.22;;;;;;;;;;10417866;28;20612;-73
2022/10/30 16:54:31;;;;;;;7.30;6.65;;;;;;;;;;10420754;28;20222;-74
2022/10/30 16:59:36;;;;;;;7.95;7.10;;;;;;;;;;10417167;28;20303;-75
2022/10/30 17:04:41;;;;;;;14.15;7.63;;;;;;;;;;10419876;28;20222;-74
2022/10/30 17:09:42;;;;;;;13.15;8.18;;;;;;;;;;10422015;28;20692;-74
2022/10/30 17:14:48;;;;;;;6.90;6.30;;;;;;;;;;10424224;28;20238;-74
2022/10/30 17:19:54;;;;;;;8.73;5.97;;;;;;;;;;10417777;28;20579;-74
2022/10/30 17:24:56;;;;;;;8.27;6.45;;;;;;;;;;10418137;28;20226;-74
2022/10/30 17:29:58;;;;;;;5.05;4.60;;;;;;;;;;10422837;28;20225;-74
2022/10/30 17:35:09;;;;;;;9.82;5.13;;;;;;;;;;10414475;28;20596;-73
2022/10/30 17:40:10;;;;;;;5.95;5.38;;;;;;;;;;10416122;28;21310;-73
2022/10/30 17:45:15;;;;;;;8.02;5.13;;;;;;;;;;10413113;28;20337;-73
2022/10/30 17:50:16;;;;;;;6.43;5.68;;;;;;;;;;10414859;28;20213;-74
2022/10/30 17:55:20;;;;;;;6.90;4.57;;;;;;;;;;10417711;28;20274;-72
2022/10/30 18:00:21;;;;;;;8.00;5.53;;;;;;;;;;10415861;28;20231;-73
2022/10/30 18:05:25;;;;;;;7.88;4.57;;;;;;;;;;10417587;28;20227;-73
2022/10/30 18:10:26;;;;;;;4.68;4.00;;;;;;;;;;10423708;28;20227;-73
2022/10/30 18:15:33;;;;;;;7.72;5.13;;;;;;;;;;10422641;28;20223;-73
2022/10/30 18:20:34;;;;;;;9.75;4.70;;;;;;;;;;10413048;28;20238;-70
2022/10/30 18:25:35;;;;;;;5.20;4.40;;;;;;;;;;10417039;28;20218;-70
2022/10/30 18:30:37;;;;;;;10.55;4.65;;;;;;;;;;10417388;28;20227;-71
2022/10/30 18:35:39;;;;;;;4.57;4.18;;;;;;;;;;10417015;28;20230;-71
2022/10/30 18:40:44;;;;;;;4.35;4.00;;;;;;;;;;10410272;28;20227;-70
2022/10/30 18:45:46;;;;;;;4.82;4.05;;;;;;;;;;10411011;28;20309;-70
2022/10/30 18:50:47;;;;;;;4.97;3.80;;;;;;;;;;10412606;28;20219;-71
2022/10/30 18:55:48;;;;;;;4.78;4.38;;;;;;;;;;10406463;28;20264;-72
2022/10/30 19:00:49;;;;;;;4.07;3.75;;;;;;;;;;10409844;28;20272;-71
2022/10/30 19:05:51;;;;;;;4.60;4.13;;;;;;;;;;10410648;28;20358;-69
2022/10/30 19:10:55;;;;;;;6.47;4.22;;;;;;;;;;10414305;28;20593;-73
2022/10/30 19:15:56;;;;;;;9.50;4.13;;;;;;;;;;10406707;28;20247;-70
2022/10/30 19:20:57;;;;;;;4.13;3.83;;;;;;;;;;10406770;28;20699;-70
2022/10/30 19:25:59;;;;;;;8.00;5.47;;;;;;;;;;10411783;28;20219;-70
2022/10/30 19:31:00;;;;;;;8.35;5.72;;;;;;;;;;10416579;28;20651;-66
2022/10/30 19:36:03;;;;;;;8.93;5.60;;;;;;;;;;10414823;28;20599;-67
2022/10/30 19:41:05;;;;;;;8.23;5.82;;;;;;;;;;10411768;28;20234;-70
2022/10/30 19:46:08;;;;;;;8.52;5.32;;;;;;;;;;10412447;28;20249;-69
2022/10/30 19:51:10;;;;;;;7.32;5.47;;;;;;;;;;10413465;28;20225;-70
2022/10/30 19:56:19;;;;;;;8.63;5.82;;;;;;;;;;10412264;28;20215;-72
2022/10/30 20:01:20;;;;;;;10.00;5.88;;;;;;;;;;10417216;28;20227;-71
2022/10/30 20:06:21;;;;;;;6.60;5.28;;;;;;;;;;10412615;28;20215;-71
2022/10/30 20:11:22;;;;;;;14.90;8.00;;;;;;;;;;10412005;28;20220;-70
2022/10/30 20:16:23;;;;;;;15.30;8.65;;;;;;;;;;10416957;28;20229;-69
2022/10/30 20:21:26;;;;;;;15.43;10.13;;;;;;;;;;10417777;28;20226;-70
2022/10/30 20:26:29;;;;;;;12.15;9.27;;;;;;;;;;10418876;28;20320;-71
2022/10/30 20:31:30;;;;;;;15.07;9.80;;;;;;;;;;10424956;28;20219;-69
2022/10/30 20:36:31;;;;;;;18.08;9.73;;;;;;;;;;10420074;28;20440;-70
2022/10/30 20:41:32;;;;;;;12.88;9.55;;;;;;;;;;10425946;28;20281;-69
2022/10/30 20:46:34;;;;;;;14.23;9.07;;;;;;;;;;10416158;28;20230;-68
2022/10/30 20:51:35;;;;;;;19.33;11.57;;;;;;;;;;10420025;28;20734;-69
2022/10/30 20:56:36;;;;;;;17.83;9.95;;;;;;;;;;10421540;28;20218;-67
2022/10/30 21:01:37;;;;;;;24.23;13.60;;;;;;;;;;10420923;28;20226;-67
2022/10/30 21:06:38;;;;;;;26.45;13.82;;;;;;;;;;10422666;28;20223;-70
2022/10/30 21:11:39;;;;;;;16.02;11.93;;;;;;;;;;10419666;28;20365;-67
2022/10/30 21:16:40;;;;;;;21.42;13.10;;;;;;;;;;10416629;28;20215;-67
2022/10/30 21:21:41;;;;;;;21.25;12.13;;;;;;;;;;10419978;28;20235;-70
2022/10/30 21:26:43;;;;;;;15.25;10.93;;;;;;;;;;10418248;28;20236;-70
2022/10/30 21:31:44;;;;;;;16.58;9.90;;;;;;;;;;10424499;28;20226;-70
2022/10/30 21:36:45;;;;;;;17.17;9.70;;;;;;;;;;10427148;28;20207;-70
2022/10/30 21:41:46;;;;;;;12.90;9.45;;;;;;;;;;10422835;28;20310;-70
2022/10/30 21:46:48;;;;;;;13.77;8.32;;;;;;;;;;10422490;28;20246;-71
2022/10/30 21:51:49;;;;;;;10.45;8.30;;;;;;;;;;10425977;28;20219;-69
2022/10/30 21:56:51;;;;;;;9.45;8.25;;;;;;;;;;10420774;28;21018;-70
2022/10/30 22:01:52;;;;;;;13.48;7.95;;;;;;;;;;10420612;28;20317;-70
2022/10/30 22:06:53;;;;;;;11.00;7.32;;;;;;;;;;10423374;28;20594;-70
2022/10/30 22:11:54;;;;;;;11.10;7.72;;;;;;;;;;10425178;28;20226;-69
2022/10/30 22:16:55;;;;;;;10.50;7.00;;;;;;;;;;10422374;28;20215;-70
2022/10/30 22:21:56;;;;;;;9.45;7.63;;;;;;;;;;10424203;28;20227;-70
2022/10/30 22:26:57;;;;;;;9.98;7.75;;;;;;;;;;10425449;28;20226;-69
2022/10/30 22:31:58;;;;;;;12.55;7.38;;;;;;;;;;10420255;28;20222;-70
2022/10/30 22:37:00;;;;;;;13.02;7.65;;;;;;;;;;10422760;28;20229;-70
2022/10/30 22:42:01;;;;;;;9.95;6.45;;;;;;;;;;10423098;28;20734;-70
2022/10/30 22:47:02;;;;;;;10.77;6.72;;;;;;;;;;10417624;28;20231;-70
2022/10/30 22:52:03;;;;;;;9.38;6.07;;;;;;;;;;10418653;28;20218;-70
2022/10/30 22:57:04;;;;;;;13.57;6.60;;;;;;;;;;10419681;28;20215;-70
2022/10/30 23:02:05;;;;;;;10.27;5.13;;;;;;;;;;10420674;28;20360;-70
2022/10/30 23:07:06;;;;;;;8.73;5.47;;;;;;;;;;10423193;28;20221;-70
2022/10/30 23:12:07;;;;;;;6.97;5.20;;;;;;;;;;10422059;28;20223;-69
2022/10/30 23:17:09;;;;;;;7.43;5.10;;;;;;;;;;10410104;28;20308;-69
2022/10/30 23:22:10;;;;;;;5.32;4.28;;;;;;;;;;10419380;28;20715;-69
2022/10/30 23:27:11;;;;;;;8.07;4.50;;;;;;;;;;10415420;28;20277;-69
2022/10/30 23:32:12;;;;;;;10.70;4.78;;;;;;;;;;10419505;28;20307;-69
2022/10/30 23:37:13;;;;;;;4.95;4.28;;;;;;;;;;10420907;28;20297;-69
2022/10/30 23:42:14;;;;;;;9.10;4.28;;;;;;;;;;10421001;28;20231;-70
2022/10/30 23:47:16;;;;;;;4.60;3.70;;;;;;;;;;10420728;28;20238;-69
2022/10/30 23:52:17;;;;;;;5.40;3.47;;;;;;;;;;10422329;28;20354;-70
2022/10/30 23:57:18;;;;;;;4.25;3.40;;;;;;;;;;10425507;28;20237;-69
